createdAt,value
2019-04-26T00:04:57.367Z,43.69
2019-04-26T00:10:49.104Z,44.35
2019-04-26T00:14:12.388Z,44.83
2019-04-26T00:17:03.639Z,45.13
2019-04-26T00:22:39.559Z,45.92
2019-04-26T00:25:12.478Z,46.22
2019-04-26T00:27:45.258Z,46.10
2019-04-26T00:33:01.777Z,46.15
2019-04-26T00:35:53.312Z,46.44
2019-04-26T00:42:02.012Z,46.99
2019-04-26T00:44:33.837Z,47.64
2019-04-26T00:47:24.921Z,47.64
2019-04-26T00:49:58.139Z,47.33
2019-04-26T00:52:30.327Z,47.24
2019-04-26T00:55:02.443Z,47.59
2019-04-26T00:57:53.729Z,47.45
2019-04-26T01:00:26.071Z,48.02
2019-04-26T01:03:18.532Z,48.11
2019-04-26T01:09:16.016Z,48.19
2019-04-26T01:11:48.524Z,48.19
2019-04-26T01:14:20.473Z,48.36
2019-04-26T01:17:11.447Z,48.33
2019-04-26T01:20:02.682Z,47.64
2019-04-26T01:29:08.953Z,46.97
2019-04-26T01:32:12.029Z,46.89
2019-04-26T01:37:34.449Z,47.11
2019-04-26T01:46:24.977Z,47.94
2019-04-26T01:52:33.943Z,47.69
2019-04-26T01:55:16.917Z,47.66
2019-04-26T01:58:27.909Z,47.66
2019-04-26T02:01:18.940Z,47.89
2019-04-26T02:04:29.862Z,47.78
2019-04-26T02:07:39.745Z,47.94
2019-04-26T02:10:13.059Z,47.84
2019-04-26T02:15:50.454Z,47.34
2019-04-26T02:18:41.254Z,47.06
2019-04-26T02:21:31.898Z,47.35
2019-04-26T02:24:34.858Z,47.03
2019-04-26T02:35:55.289Z,47.76
2019-04-26T02:38:27.893Z,47.74
2019-04-26T02:40:59.693Z,47.98
2019-04-26T02:43:50.506Z,47.62
2019-04-26T02:49:40.766Z,47.58
2019-04-26T02:52:46.443Z,47.48
2019-04-26T02:56:04.550Z,47.25
2019-04-26T02:59:09.497Z,46.56
2019-04-26T03:02:11.730Z,46.50
2019-04-26T03:04:43.941Z,47.15
2019-04-26T03:07:53.609Z,47.26
2019-04-26T03:17:26.686Z,47.38
2019-04-26T03:20:32.585Z,47.37
2019-04-26T03:23:59.427Z,47.82
2019-04-26T03:27:01.436Z,47.83
2019-04-26T03:30:22.637Z,48.23
2019-04-26T03:33:25.243Z,48.67
2019-04-26T03:36:33.888Z,48.57
2019-04-26T03:39:44.477Z,48.55
2019-04-26T03:46:04.693Z,48.58
2019-04-26T03:49:10.515Z,48.85
2019-04-26T03:52:19.488Z,48.76
2019-04-26T03:55:31.021Z,48.70
2019-04-26T03:58:13.835Z,48.56
2019-04-26T04:03:55.355Z,47.84
2019-04-26T04:07:03.454Z,47.77
2019-04-26T04:12:57.882Z,47.33
2019-04-26T04:15:59.353Z,47.20
2019-04-26T04:19:02.607Z,46.79
2019-04-26T04:22:04.942Z,46.88
2019-04-26T04:24:57.950Z,47.24
2019-04-26T04:28:05.345Z,46.71
2019-04-26T04:31:03.924Z,46.61
2019-04-26T04:34:13.740Z,47.10
2019-04-26T04:40:30.844Z,46.40
2019-04-26T04:43:33.674Z,46.67
2019-04-26T04:47:02.343Z,46.30
2019-04-26T04:53:17.841Z,46.26
2019-04-26T04:56:23.521Z,47.06
2019-04-26T04:59:13.499Z,47.62
2019-04-26T05:06:07.714Z,47.85
2019-04-26T05:08:59.553Z,47.90
2019-04-26T05:12:08.451Z,48.27
2019-04-26T05:18:53.071Z,49.05
2019-04-26T05:28:53.794Z,49.67
2019-04-26T05:31:57.860Z,49.55
2019-04-26T05:41:31.984Z,50.64
2019-04-26T05:48:09.300Z,48.94
2019-04-26T05:51:32.872Z,48.94
2019-04-26T05:54:31.361Z,49.59
2019-04-26T06:01:31.771Z,49.83
2019-04-26T06:18:07.486Z,52.51
2019-04-26T06:24:56.377Z,52.86
2019-04-26T06:31:30.302Z,51.55
2019-04-26T06:34:39.341Z,51.76
2019-04-26T06:37:42.489Z,51.62
2019-04-26T06:40:55.921Z,52.39
2019-04-26T06:44:07.731Z,51.67
2019-04-26T06:47:48.249Z,51.73
2019-04-26T06:53:43.045Z,51.10
2019-04-26T06:56:53.616Z,51.35
2019-04-26T06:59:47.952Z,51.13
2019-04-26T07:02:59.726Z,52.11
2019-04-26T07:08:58.097Z,54.81
2019-04-26T07:12:26.738Z,55.27
2019-04-26T07:15:38.641Z,54.93
2019-04-26T07:19:04.221Z,54.02
2019-04-26T07:22:35.537Z,53.90
2019-04-26T07:26:14.111Z,53.64
2019-04-26T07:28:56.256Z,54.95
2019-04-26T07:39:10.511Z,54.63
2019-04-26T07:49:19.967Z,53.86
2019-04-26T07:52:51.329Z,53.14
2019-04-26T07:55:46.415Z,54.24
2019-04-26T07:58:55.518Z,52.51
2019-04-26T08:05:04.285Z,52.09
2019-04-26T08:08:08.633Z,51.88
2019-04-26T08:11:11.549Z,51.88
2019-04-26T08:14:10.654Z,51.72
2019-04-26T08:17:41.227Z,50.86
2019-04-26T08:20:51.659Z,50.75
2019-04-26T08:27:21.338Z,50.97
2019-04-26T08:36:18.364Z,51.08
2019-04-26T08:46:02.864Z,50.58
2019-04-26T08:51:22.952Z,51.95
2019-04-26T08:54:14.912Z,51.11
2019-04-26T08:57:17.662Z,51.69
2019-04-26T09:03:17.318Z,51.62
2019-04-26T09:06:26.921Z,51.29
2019-04-26T09:12:22.313Z,50.72
2019-04-26T09:14:52.700Z,51.67
2019-04-26T09:17:42.458Z,51.41
2019-04-26T09:20:27.755Z,51.41
2019-04-26T09:23:26.033Z,52.16
2019-04-26T09:26:03.519Z,52.31
2019-04-26T09:29:14.223Z,52.67
2019-04-26T09:32:24.212Z,51.80
2019-04-26T09:35:35.906Z,52.43
2019-04-26T09:38:07.570Z,52.69
2019-04-26T09:41:00.642Z,51.08
2019-04-26T09:44:10.070Z,52.27
2019-04-26T09:47:19.852Z,51.95
2019-04-26T09:50:28.646Z,52.21
2019-04-26T09:56:40.901Z,51.93
2019-04-26T09:59:36.335Z,51.82
2019-04-26T10:02:19.018Z,52.61
2019-04-26T10:05:13.600Z,52.97
2019-04-26T10:08:13.083Z,52.45
2019-04-26T10:11:14.761Z,51.98
2019-04-26T10:14:08.650Z,51.40
2019-04-26T10:18:37.117Z,50.76
2019-04-26T10:20:30.894Z,51.08
2019-04-26T10:26:08.608Z,52.00
2019-04-26T10:29:21.804Z,52.00
2019-04-26T10:32:10.475Z,52.40
2019-04-26T10:35:00.433Z,51.86
2019-04-26T10:38:11.527Z,51.47
2019-04-26T10:44:16.990Z,50.47
2019-04-26T10:50:09.664Z,49.34
2019-04-26T10:53:20.031Z,50.23
2019-04-26T10:56:29.636Z,51.12
2019-04-26T10:59:39.814Z,50.35
2019-04-26T11:05:24.556Z,48.57
2019-04-26T11:11:44.564Z,48.79
2019-04-26T11:14:35.342Z,48.43
2019-04-26T11:20:45.501Z,49.65
2019-04-26T11:26:16.791Z,49.55
2019-04-26T11:31:54.218Z,48.50
2019-04-26T11:34:44.930Z,50.33
2019-04-26T11:37:17.929Z,49.47
2019-04-26T11:42:51.230Z,48.39
2019-04-26T11:45:45.422Z,48.91
2019-04-26T11:48:14.941Z,48.98
2019-04-26T11:50:51.794Z,47.90
2019-04-26T11:53:21.742Z,48.64
2019-04-26T11:59:21.443Z,50.30
2019-04-26T12:05:23.094Z,48.72
2019-04-26T12:08:15.610Z,47.70
2019-04-26T12:10:46.368Z,47.66
2019-04-26T12:13:59.510Z,47.60
2019-04-26T12:16:51.304Z,47.46
2019-04-26T12:22:43.270Z,44.76
2019-04-26T12:25:48.897Z,43.56
2019-04-26T12:31:56.446Z,42.96
2019-04-26T12:34:29.160Z,44.58
2019-04-26T12:36:59.945Z,44.51
2019-04-26T12:42:58.904Z,45.02
2019-04-26T12:45:51.456Z,45.82
2019-04-26T12:48:52.916Z,46.30
2019-04-26T12:51:14.204Z,46.07
2019-04-26T12:56:55.310Z,45.72
2019-04-26T12:59:47.801Z,46.82
2019-04-26T13:05:22.168Z,47.95
2019-04-26T13:07:54.763Z,48.02
2019-04-26T13:10:46.127Z,48.25
2019-04-26T13:13:36.068Z,48.12
2019-04-26T13:16:45.664Z,47.30
2019-04-26T13:19:19.859Z,48.03
2019-04-26T13:25:26.272Z,47.60
2019-04-26T13:28:10.866Z,47.59
2019-04-26T13:40:13.781Z,47.85
2019-04-26T13:43:26.936Z,48.08
2019-04-26T13:46:38.311Z,48.86
2019-04-26T13:49:31.197Z,48.08
2019-04-26T13:52:22.307Z,49.52
2019-04-26T13:55:18.304Z,48.91
2019-04-26T13:58:27.037Z,48.26
2019-04-26T14:01:01.204Z,48.26
2019-04-26T14:04:06.906Z,47.71
2019-04-26T14:07:02.890Z,47.43
2019-04-26T14:12:35.695Z,46.67
2019-04-26T14:15:43.290Z,43.66
2019-04-26T14:18:00.235Z,44.27
2019-04-26T14:20:54.775Z,44.39
2019-04-26T14:24:01.636Z,43.59
2019-04-26T14:26:56.560Z,43.38
2019-04-26T14:29:48.813Z,42.94
2019-04-26T14:32:43.735Z,41.94
2019-04-26T14:38:28.007Z,42.17
2019-04-26T14:41:22.503Z,42.61
2019-04-26T14:44:15.622Z,42.50
2019-04-26T14:47:22.404Z,42.83
2019-04-26T14:50:14.191Z,42.49
2019-04-26T14:52:46.167Z,41.89
2019-04-26T14:55:21.320Z,42.08
2019-04-26T14:58:13.065Z,41.67
2019-04-26T15:04:07.776Z,41.43
2019-04-26T15:10:53.024Z,41.23
2019-04-26T15:13:54.402Z,40.86
2019-04-26T15:17:09.609Z,40.80
2019-04-26T15:20:16.805Z,40.69
2019-04-26T15:30:00.707Z,40.21
2019-04-26T15:32:53.045Z,40.92
2019-04-26T15:35:59.500Z,41.25
2019-04-26T15:39:08.010Z,40.87
2019-04-26T15:42:29.215Z,39.91
2019-04-26T15:45:59.053Z,39.57
2019-04-26T15:49:13.130Z,39.60
2019-04-26T15:52:36.693Z,39.35
2019-04-26T16:01:32.510Z,39.95
2019-04-26T16:04:35.423Z,41.35
2019-04-26T16:10:19.250Z,40.93
2019-04-26T16:13:21.416Z,40.77
2019-04-26T16:16:04.881Z,41.09
2019-04-26T16:18:57.223Z,40.73
2019-04-26T16:21:28.274Z,40.77
2019-04-26T16:30:42.865Z,40.29
2019-04-26T16:33:45.704Z,39.30
2019-04-26T16:36:27.902Z,38.40
2019-04-26T16:42:39.607Z,37.64
2019-04-26T16:48:17.338Z,38.33
2019-04-26T16:50:49.465Z,38.06
2019-04-26T16:56:43.952Z,37.34
2019-04-26T16:59:46.602Z,38.21
2019-04-26T17:02:52.726Z,37.59
2019-04-26T17:05:56.754Z,38.10
2019-04-26T17:12:02.567Z,38.23
2019-04-26T17:14:34.221Z,38.23
2019-04-26T17:19:48.293Z,38.96
2019-04-26T17:22:44.491Z,38.66
2019-04-26T17:31:39.917Z,39.68
2019-04-26T17:34:17.066Z,39.68
2019-04-26T17:36:50.387Z,39.97
2019-04-26T17:39:47.398Z,40.25
2019-04-26T17:42:16.523Z,40.21
2019-04-26T17:54:26.601Z,39.91
2019-04-26T17:57:25.414Z,39.62
2019-04-26T17:59:36.857Z,40.08
2019-04-26T18:02:24.211Z,40.49
2019-04-26T18:04:43.241Z,40.57
2019-04-26T18:22:36.531Z,42.06
2019-04-26T18:25:14.708Z,42.39
2019-04-26T18:28:08.702Z,42.67
2019-04-26T18:31:00.205Z,42.90
2019-04-26T18:34:01.811Z,42.53
2019-04-26T18:40:16.690Z,43.06
2019-04-26T18:52:08.796Z,43.39
2019-04-26T18:55:21.344Z,43.37
2019-04-26T18:58:10.316Z,43.48
2019-04-26T19:04:12.821Z,43.87
2019-04-26T19:06:31.933Z,43.65
2019-04-26T19:15:41.726Z,44.28
2019-04-26T19:18:33.305Z,44.53
2019-04-26T19:21:32.306Z,44.95
2019-04-26T19:24:27.867Z,45.89
2019-04-26T19:30:50.715Z,46.41
2019-04-26T19:40:02.894Z,46.46
2019-04-26T19:48:55.578Z,47.55
2019-04-26T19:52:05.164Z,47.99
2019-04-26T19:54:51.245Z,48.54
2019-04-26T19:57:25.440Z,49.36
2019-04-26T20:00:26.973Z,49.50
2019-04-26T20:03:17.714Z,50.07
2019-04-26T20:06:07.112Z,50.39
2019-04-26T20:12:07.706Z,49.85
2019-04-26T20:14:47.278Z,49.58
2019-04-26T20:20:32.237Z,49.23
2019-04-26T20:25:52.752Z,48.97
2019-04-26T20:28:43.970Z,48.81
2019-04-26T20:44:48.107Z,48.06
2019-04-26T20:50:00.608Z,48.61
2019-04-26T20:55:36.909Z,48.61
2019-04-26T20:58:08.796Z,49.17
2019-04-26T21:04:02.036Z,49.74
2019-04-26T21:06:53.545Z,50.26
2019-04-26T21:09:43.519Z,50.52
2019-04-26T21:12:17.441Z,50.33
2019-04-26T21:15:06.884Z,49.95
2019-04-26T21:17:36.809Z,49.69
2019-04-26T21:23:15.458Z,50.32
2019-04-26T21:28:54.269Z,50.70
2019-04-26T21:32:02.010Z,51.10
2019-04-26T21:34:50.757Z,50.87
2019-04-26T21:37:45.498Z,51.45
2019-04-26T21:40:46.889Z,51.52
2019-04-26T21:43:29.464Z,51.49
2019-04-26T21:46:36.918Z,50.84
2019-04-26T21:49:25.875Z,50.15
2019-04-26T21:52:07.377Z,51.89
2019-04-26T21:54:57.286Z,51.89
2019-04-26T21:57:28.419Z,51.48
2019-04-26T22:00:38.338Z,51.53
2019-04-26T22:03:14.324Z,51.24
2019-04-26T22:06:00.656Z,51.01
2019-04-26T22:11:44.434Z,49.95
2019-04-26T22:17:43.407Z,49.75
2019-04-26T22:20:33.826Z,49.70
2019-04-26T22:23:43.662Z,49.30
2019-04-26T22:26:48.108Z,49.36
2019-04-26T22:29:51.907Z,48.79
2019-04-26T22:32:22.995Z,48.94
2019-04-26T22:35:20.304Z,48.80
2019-04-26T22:37:49.394Z,48.94
2019-04-26T22:40:41.035Z,48.55
2019-04-26T22:43:31.588Z,47.97
2019-04-26T22:46:47.294Z,47.81
2019-04-26T22:49:14.441Z,47.70
2019-04-26T22:54:55.779Z,47.46
2019-04-26T23:03:20.569Z,46.30
2019-04-26T23:06:15.169Z,45.87
2019-04-26T23:09:07.362Z,46.14
2019-04-26T23:18:08.131Z,46.89
2019-04-26T23:21:03.559Z,46.88
2019-04-26T23:23:47.150Z,47.75
2019-04-26T23:26:37.528Z,47.75
2019-04-26T23:35:43.763Z,49.23
2019-04-26T23:38:34.517Z,49.85
2019-04-26T23:41:06.906Z,50.56
2019-04-26T23:46:36.917Z,49.99
2019-04-26T23:49:30.430Z,50.17
2019-04-26T23:52:39.102Z,50.46
2019-04-26T23:55:10.275Z,50.54
2019-04-26T23:57:41.105Z,50.89
